createdAt,value
2023-02-04T00:00:17.162Z,7.49
2023-02-04T00:02:44.065Z,7.50
2023-02-04T00:05:14.536Z,7.50
2023-02-04T00:07:42.373Z,7.33
2023-02-04T00:10:09.903Z,7.37
2023-02-04T00:12:36.725Z,7.31
2023-02-04T00:15:04.585Z,7.39
2023-02-04T00:17:31.541Z,7.39
2023-02-04T00:19:58.314Z,7.45
2023-02-04T00:22:26.567Z,7.22
2023-02-04T00:24:53.493Z,7.06
2023-02-04T00:27:20.223Z,7.18
2023-02-04T00:29:47.157Z,6.97
2023-02-04T00:32:14.005Z,7.13
2023-02-04T00:34:41.408Z,7.25
2023-02-04T00:37:08.326Z,7.43
2023-02-04T00:39:35.050Z,7.31
2023-02-04T00:42:01.970Z,7.24
2023-02-04T00:44:28.761Z,7.18
2023-02-04T00:46:57.426Z,7.33
2023-02-04T00:49:26.278Z,6.82
2023-02-04T00:51:53.068Z,6.87
2023-02-04T00:54:20.111Z,6.18
2023-02-04T00:56:46.878Z,6.54
2023-02-04T00:59:14.015Z,6.88
2023-02-04T01:01:40.950Z,7.01
2023-02-04T01:04:08.053Z,6.97
2023-02-04T01:06:35.417Z,7.12
2023-02-04T01:09:03.937Z,7.17
2023-02-04T01:11:31.687Z,7.05
2023-02-04T01:13:58.562Z,6.16
2023-02-04T01:16:25.585Z,6.62
2023-02-04T01:18:55.778Z,6.97
2023-02-04T01:21:25.221Z,7.06
2023-02-04T01:23:52.393Z,6.98
2023-02-04T01:26:19.969Z,7.22
2023-02-04T01:28:47.343Z,7.27
2023-02-04T01:31:15.301Z,7.30
2023-02-04T01:33:42.552Z,7.01
2023-02-04T01:36:09.669Z,7.28
2023-02-04T01:38:36.545Z,7.17
2023-02-04T01:41:06.116Z,6.88
2023-02-04T01:43:33.943Z,7.09
2023-02-04T01:46:02.585Z,6.87
2023-02-04T01:48:29.956Z,6.97
2023-02-04T01:51:09.210Z,7.24
2023-02-04T01:53:36.769Z,7.34
2023-02-04T01:56:16.093Z,7.28
2023-02-04T01:58:43.504Z,7.19
2023-02-04T02:01:13.877Z,7.31
2023-02-04T02:03:40.966Z,7.18
2023-02-04T02:06:10.763Z,6.88
2023-02-04T02:08:37.976Z,6.82
2023-02-04T02:11:06.407Z,7.17
2023-02-04T02:13:33.316Z,7.00
2023-02-04T02:16:00.028Z,6.68
2023-02-04T02:18:26.994Z,6.45
2023-02-04T02:20:54.889Z,7.01
2023-02-04T02:23:46.609Z,7.22
2023-02-04T02:26:15.268Z,7.13
2023-02-04T02:28:42.686Z,6.83
2023-02-04T02:31:10.178Z,6.96
2023-02-04T02:33:37.195Z,7.06
2023-02-04T02:36:04.577Z,7.10
2023-02-04T02:38:32.524Z,7.11
2023-02-04T02:41:01.829Z,6.84
2023-02-04T02:43:29.308Z,7.20
2023-02-04T02:45:59.603Z,7.21
2023-02-04T02:48:26.973Z,7.25
2023-02-04T02:50:53.975Z,7.24
2023-02-04T02:53:22.034Z,7.08
2023-02-04T02:55:49.501Z,6.97
2023-02-04T02:58:30.080Z,6.93
2023-02-04T03:00:57.694Z,7.08
2023-02-04T03:03:28.996Z,7.08
2023-02-04T03:06:00.537Z,7.02
2023-02-04T03:08:27.835Z,7.03
2023-02-04T03:10:54.752Z,7.04
2023-02-04T03:13:22.631Z,7.10
2023-02-04T03:15:49.891Z,7.17
2023-02-04T03:18:19.601Z,7.01
2023-02-04T03:20:47.652Z,7.08
2023-02-04T03:23:14.565Z,6.94
2023-02-04T03:25:42.409Z,7.00
2023-02-04T03:28:09.806Z,6.99
2023-02-04T03:30:36.815Z,7.00
2023-02-04T03:33:03.874Z,6.59
2023-02-04T03:35:30.674Z,6.75
2023-02-04T03:37:57.652Z,6.97
2023-02-04T03:40:24.475Z,7.00
2023-02-04T03:42:51.357Z,6.88
2023-02-04T03:45:18.194Z,6.87
2023-02-04T03:47:44.925Z,6.94
2023-02-04T03:50:13.289Z,6.93
2023-02-04T03:52:40.217Z,6.93
2023-02-04T03:55:07.378Z,7.09
2023-02-04T03:57:34.241Z,7.01
2023-02-04T04:00:00.964Z,6.75
2023-02-04T04:02:27.820Z,7.24
2023-02-04T04:04:55.610Z,7.28
2023-02-04T04:07:22.374Z,7.31
2023-02-04T04:09:49.179Z,7.52
2023-02-04T04:12:15.942Z,7.35
2023-02-04T04:14:42.924Z,7.37
2023-02-04T04:17:09.817Z,7.17
2023-02-04T04:19:36.690Z,7.43
2023-02-04T04:22:03.385Z,7.28
2023-02-04T04:24:30.188Z,7.31
2023-02-04T04:26:56.903Z,7.37
2023-02-04T04:29:23.883Z,7.26
2023-02-04T04:31:50.695Z,7.37
2023-02-04T04:34:17.807Z,7.31
2023-02-04T04:36:44.610Z,7.36
2023-02-04T04:39:11.402Z,7.25
2023-02-04T04:41:38.201Z,7.19
2023-02-04T04:44:05.089Z,6.98
2023-02-04T04:46:31.870Z,7.03
2023-02-04T04:48:58.789Z,7.04
2023-02-04T04:51:25.575Z,7.29
2023-02-04T04:53:52.532Z,7.34
2023-02-04T04:56:19.299Z,7.30
2023-02-04T04:58:46.214Z,7.26
2023-02-04T05:01:13.087Z,7.43
2023-02-04T05:03:39.835Z,7.41
2023-02-04T05:06:06.553Z,7.45
2023-02-04T05:08:34.949Z,7.47
2023-02-04T05:11:02.842Z,7.54
2023-02-04T05:13:29.645Z,7.22
2023-02-04T05:15:56.605Z,7.36
2023-02-04T05:18:23.613Z,7.38
2023-02-04T05:20:50.301Z,7.43
2023-02-04T05:23:17.301Z,7.43
2023-02-04T05:25:44.017Z,7.36
2023-02-04T05:28:10.893Z,7.35
2023-02-04T05:30:37.715Z,7.38
2023-02-04T05:33:04.573Z,7.08
2023-02-04T05:35:31.389Z,6.61
2023-02-04T05:37:58.138Z,6.45
2023-02-04T05:40:24.881Z,6.94
2023-02-04T05:42:51.845Z,6.91
2023-02-04T05:45:19.183Z,6.74
2023-02-04T05:47:46.352Z,7.36
2023-02-04T05:50:13.069Z,6.96
2023-02-04T05:52:40.523Z,6.40
2023-02-04T05:55:08.823Z,7.27
2023-02-04T05:57:35.739Z,7.01
2023-02-04T06:00:03.184Z,6.45
2023-02-04T06:02:38.655Z,6.37
2023-02-04T06:05:06.012Z,6.58
2023-02-04T06:07:32.904Z,6.78
2023-02-04T06:10:00.498Z,7.27
2023-02-04T06:12:27.489Z,7.14
2023-02-04T06:14:56.050Z,7.18
2023-02-04T06:17:22.871Z,7.34
2023-02-04T06:19:49.589Z,7.13
2023-02-04T06:22:16.348Z,6.64
2023-02-04T06:24:45.165Z,7.38
2023-02-04T06:27:13.300Z,6.93
2023-02-04T06:29:40.119Z,7.24
2023-02-04T06:32:06.790Z,6.60
2023-02-04T06:34:33.537Z,6.94
2023-02-04T06:37:00.417Z,7.34
2023-02-04T06:39:27.244Z,7.64
2023-02-04T06:41:54.066Z,7.57
2023-02-04T06:44:20.873Z,7.73
2023-02-04T06:46:47.864Z,7.90
2023-02-04T06:49:14.695Z,7.31
2023-02-04T06:51:41.550Z,7.16
2023-02-04T06:54:08.477Z,7.18
2023-02-04T06:56:35.228Z,7.15
2023-02-04T06:59:03.510Z,6.87
2023-02-04T07:01:30.391Z,6.71
2023-02-04T07:03:57.263Z,7.34
2023-02-04T07:06:24.096Z,7.33
2023-02-04T07:08:51.137Z,7.60
2023-02-04T07:11:17.899Z,7.72
2023-02-04T07:13:44.694Z,7.56
2023-02-04T07:16:11.478Z,7.89
2023-02-04T07:18:38.296Z,7.85
2023-02-04T07:21:05.238Z,8.42
2023-02-04T07:23:32.027Z,8.04
2023-02-04T07:25:59.570Z,7.76
2023-02-04T07:28:26.473Z,8.27
2023-02-04T07:30:53.485Z,8.54
2023-02-04T07:33:20.185Z,7.91
2023-02-04T07:35:47.199Z,7.82
2023-02-04T07:38:16.524Z,8.94
2023-02-04T07:40:43.362Z,8.79
2023-02-04T07:43:10.146Z,8.74
2023-02-04T07:45:38.901Z,8.87
2023-02-04T07:48:06.053Z,8.86
2023-02-04T07:50:33.201Z,9.23
2023-02-04T07:53:00.322Z,8.61
2023-02-04T07:55:27.149Z,8.62
2023-02-04T07:57:54.263Z,9.11
2023-02-04T08:00:21.400Z,8.70
2023-02-04T08:02:48.509Z,8.78
2023-02-04T08:05:15.586Z,8.68
2023-02-04T08:07:42.674Z,8.76
2023-02-04T08:10:10.594Z,8.81
2023-02-04T08:12:37.972Z,8.56
2023-02-04T08:15:07.537Z,8.99
2023-02-04T08:17:34.597Z,9.33
2023-02-04T08:20:01.579Z,9.35
2023-02-04T08:22:28.344Z,8.26
2023-02-04T08:24:55.169Z,8.54
2023-02-04T08:27:22.000Z,9.26
2023-02-04T08:29:49.254Z,9.07
2023-02-04T08:32:16.266Z,9.11
2023-02-04T08:34:44.111Z,9.13
2023-02-04T08:37:11.031Z,9.12
2023-02-04T08:39:38.495Z,9.04
2023-02-04T08:42:05.504Z,9.07
2023-02-04T08:44:32.286Z,8.81
2023-02-04T08:46:59.121Z,8.76
2023-02-04T08:49:25.981Z,8.60
2023-02-04T08:51:52.616Z,8.08
2023-02-04T08:54:19.459Z,8.07
2023-02-04T08:56:48.203Z,8.75
2023-02-04T08:59:14.926Z,8.82
2023-02-04T09:01:41.712Z,8.89
2023-02-04T09:04:08.792Z,9.52
2023-02-04T09:06:35.808Z,8.56
2023-02-04T09:09:02.571Z,8.75
2023-02-04T09:11:29.348Z,9.17
2023-02-04T09:13:57.491Z,9.42
2023-02-04T09:16:24.383Z,9.10
2023-02-04T09:18:51.091Z,9.10
2023-02-04T09:21:17.919Z,9.76
2023-02-04T09:23:46.647Z,9.94
2023-02-04T09:26:13.757Z,9.94
2023-02-04T09:28:40.553Z,8.93
2023-02-04T09:31:07.488Z,9.58
2023-02-04T09:33:35.266Z,8.83
2023-02-04T09:36:02.390Z,8.33
2023-02-04T09:38:30.383Z,9.11
2023-02-04T09:41:04.285Z,8.70
2023-02-04T09:43:35.906Z,8.78
2023-02-04T09:46:03.769Z,8.92
2023-02-04T09:48:31.067Z,8.52
2023-02-04T09:51:05.608Z,7.81
2023-02-04T09:53:33.075Z,8.01
2023-02-04T09:55:59.853Z,8.27
2023-02-04T09:58:31.429Z,8.66
2023-02-04T10:01:01.813Z,8.15
2023-02-04T10:03:28.808Z,8.30
2023-02-04T10:05:55.577Z,8.41
2023-02-04T10:08:29.505Z,8.59
2023-02-04T10:10:58.075Z,8.48
2023-02-04T10:13:33.018Z,8.71
2023-02-04T10:16:01.521Z,8.54
2023-02-04T10:18:34.018Z,8.81
2023-02-04T10:21:15.745Z,8.57
2023-02-04T10:23:44.646Z,8.62
2023-02-04T10:26:13.191Z,8.46
2023-02-04T10:28:40.686Z,8.40
2023-02-04T10:31:31.581Z,8.48
2023-02-04T10:34:04.423Z,8.51
2023-02-04T10:36:31.368Z,8.97
2023-02-04T10:39:10.983Z,8.27
2023-02-04T10:41:40.088Z,8.23
2023-02-04T10:44:12.953Z,8.28
2023-02-04T10:46:40.217Z,7.81
2023-02-04T10:49:22.667Z,8.29
2023-02-04T10:51:50.956Z,8.19
2023-02-04T10:54:32.447Z,7.94
2023-02-04T10:57:21.685Z,8.40
2023-02-04T10:59:51.950Z,8.42
2023-02-04T11:02:45.387Z,8.10
2023-02-04T11:05:16.614Z,8.61
2023-02-04T11:07:44.994Z,8.57
2023-02-04T11:10:18.364Z,9.11
2023-02-04T11:13:06.104Z,8.82
2023-02-04T11:15:41.134Z,8.36
2023-02-04T11:18:30.135Z,9.01
2023-02-04T11:20:59.341Z,9.04
2023-02-04T11:23:26.064Z,9.04
2023-02-04T11:26:08.107Z,8.72
2023-02-04T11:28:50.162Z,9.11
2023-02-04T11:31:20.850Z,9.51
2023-02-04T11:33:49.638Z,9.90
2023-02-04T11:36:17.593Z,8.79
2023-02-04T11:38:49.908Z,9.12
2023-02-04T11:41:23.710Z,9.52
2023-02-04T11:43:53.056Z,8.79
2023-02-04T11:46:20.560Z,8.96
2023-02-04T11:48:53.675Z,9.08
2023-02-04T11:51:26.426Z,9.24
2023-02-04T11:53:53.292Z,9.36
2023-02-04T11:56:21.675Z,9.00
2023-02-04T11:58:50.257Z,9.06
2023-02-04T12:01:22.188Z,9.50
2023-02-04T12:03:51.220Z,8.94
2023-02-04T12:06:26.679Z,8.65
2023-02-04T12:09:24.137Z,8.77
2023-02-04T12:11:56.801Z,8.31
2023-02-04T12:14:32.395Z,8.87
2023-02-04T12:16:59.784Z,8.27
2023-02-04T12:19:27.807Z,8.98
2023-02-04T12:21:55.284Z,8.94
2023-02-04T12:24:22.072Z,8.53
2023-02-04T12:26:48.983Z,8.91
2023-02-04T12:29:15.781Z,9.05
2023-02-04T12:31:42.505Z,8.74
2023-02-04T12:34:09.553Z,8.20
2023-02-04T12:36:36.305Z,7.89
2023-02-04T12:39:03.689Z,8.14
2023-02-04T12:41:30.596Z,8.89
2023-02-04T12:43:57.280Z,8.55
2023-02-04T12:46:24.254Z,8.75
2023-02-04T12:48:51.817Z,8.81
2023-02-04T12:51:18.845Z,9.59
2023-02-04T12:53:45.730Z,9.54
2023-02-04T12:56:12.530Z,9.60
2023-02-04T12:58:39.270Z,9.46
2023-02-04T13:01:06.632Z,9.35
2023-02-04T13:03:33.562Z,9.00
2023-02-04T13:06:00.482Z,9.57
2023-02-04T13:08:27.238Z,9.07
2023-02-04T13:10:54.280Z,8.92
2023-02-04T13:13:22.551Z,9.06
2023-02-04T13:15:49.429Z,8.63
2023-02-04T13:18:17.462Z,8.49
2023-02-04T13:20:46.035Z,8.23
2023-02-04T13:23:14.222Z,8.58
2023-02-04T13:25:41.180Z,8.43
2023-02-04T13:28:08.011Z,7.90
2023-02-04T13:30:34.913Z,7.89
2023-02-04T13:33:02.213Z,8.07
2023-02-04T13:35:29.049Z,8.32
2023-02-04T13:37:56.620Z,8.32
2023-02-04T13:40:23.590Z,8.13
2023-02-04T13:42:50.512Z,8.35
2023-02-04T13:45:19.111Z,7.91
2023-02-04T13:47:48.013Z,7.81
2023-02-04T13:50:16.615Z,8.25
2023-02-04T13:52:43.475Z,8.15
2023-02-04T13:55:10.700Z,7.94
2023-02-04T13:57:38.031Z,8.72
2023-02-04T14:00:07.070Z,8.61
2023-02-04T14:02:39.495Z,8.28
2023-02-04T14:05:06.626Z,8.01
2023-02-04T14:07:34.126Z,8.28
2023-02-04T14:10:01.048Z,8.29
2023-02-04T14:12:27.761Z,7.93
2023-02-04T14:14:54.861Z,8.54
2023-02-04T14:17:21.694Z,8.51
2023-02-04T14:19:48.483Z,8.31
2023-02-04T14:22:15.318Z,8.44
2023-02-04T14:24:43.450Z,8.85
2023-02-04T14:27:11.258Z,8.60
2023-02-04T14:29:38.124Z,8.53
2023-02-04T14:32:05.118Z,8.29
2023-02-04T14:34:32.062Z,7.99
2023-02-04T14:36:59.856Z,7.99
2023-02-04T14:39:26.774Z,7.92
2023-02-04T14:41:53.605Z,7.69
2023-02-04T14:44:23.498Z,7.86
2023-02-04T14:46:50.453Z,7.65
2023-02-04T14:49:17.772Z,7.72
2023-02-04T14:51:44.606Z,8.09
2023-02-04T14:54:11.387Z,7.69
2023-02-04T14:56:38.502Z,7.52
2023-02-04T14:59:05.803Z,7.03
2023-02-04T15:01:32.542Z,7.79
2023-02-04T15:03:59.548Z,7.44
2023-02-04T15:06:26.694Z,7.17
2023-02-04T15:08:53.503Z,7.60
2023-02-04T15:11:20.588Z,7.72
2023-02-04T15:13:47.312Z,6.93
2023-02-04T15:16:15.223Z,7.25
2023-02-04T15:18:42.457Z,7.10
2023-02-04T15:21:09.724Z,7.06
2023-02-04T15:23:55.140Z,7.01
2023-02-04T15:26:22.455Z,7.36
2023-02-04T15:29:08.117Z,7.10
2023-02-04T15:32:31.187Z,6.54
2023-02-04T15:34:57.986Z,7.25
2023-02-04T15:37:24.746Z,7.47
2023-02-04T15:39:51.646Z,7.05
2023-02-04T15:42:18.479Z,6.81
2023-02-04T15:44:45.233Z,6.90
2023-02-04T15:47:11.928Z,7.13
2023-02-04T15:49:38.832Z,6.57
2023-02-04T15:52:08.893Z,6.55
2023-02-04T15:54:37.944Z,6.38
2023-02-04T15:57:04.676Z,6.18
2023-02-04T15:59:31.609Z,6.76
2023-02-04T16:01:58.476Z,6.40
2023-02-04T16:04:25.393Z,6.43
2023-02-04T16:06:58.543Z,6.43
2023-02-04T16:09:26.224Z,6.29
2023-02-04T16:11:52.960Z,6.39
2023-02-04T16:14:19.929Z,5.88
2023-02-04T16:16:46.729Z,6.27
2023-02-04T16:19:13.486Z,6.23
2023-02-04T16:21:40.313Z,5.91
2023-02-04T16:24:07.555Z,6.00
2023-02-04T16:26:34.270Z,6.34
2023-02-04T16:29:01.107Z,6.04
2023-02-04T16:31:28.033Z,6.19
2023-02-04T16:33:54.984Z,5.59
2023-02-04T16:36:22.672Z,5.87
2023-02-04T16:38:49.672Z,5.67
2023-02-04T16:41:16.488Z,5.58
2023-02-04T16:43:43.398Z,5.56
2023-02-04T16:46:12.293Z,5.58
2023-02-04T16:48:39.375Z,5.56
2023-02-04T16:51:06.140Z,5.77
2023-02-04T16:53:33.137Z,5.80
2023-02-04T16:55:59.924Z,5.68
2023-02-04T16:58:26.750Z,5.26
2023-02-04T17:00:54.675Z,5.00
2023-02-04T17:03:21.560Z,5.55
2023-02-04T17:05:48.442Z,5.84
2023-02-04T17:08:16.766Z,5.14
2023-02-04T17:11:02.226Z,5.94
2023-02-04T17:13:29.244Z,6.09
2023-02-04T17:16:00.759Z,5.79
2023-02-04T17:18:31.997Z,5.76
2023-02-04T17:21:00.195Z,5.85
2023-02-04T17:23:28.416Z,5.35
2023-02-04T17:25:55.368Z,5.43
2023-02-04T17:28:22.190Z,5.64
2023-02-04T17:30:49.214Z,5.55
2023-02-04T17:33:15.919Z,5.52
2023-02-04T17:35:42.777Z,5.84
2023-02-04T17:38:09.619Z,5.51
2023-02-04T17:40:37.647Z,5.28
2023-02-04T17:43:04.939Z,4.83
2023-02-04T17:45:32.117Z,5.21
2023-02-04T17:47:59.064Z,5.41
2023-02-04T17:50:26.075Z,5.38
2023-02-04T17:52:52.855Z,4.73
2023-02-04T17:55:30.843Z,5.01
2023-02-04T17:58:25.971Z,5.41
2023-02-04T18:00:55.440Z,5.33
2023-02-04T18:03:25.097Z,5.77
2023-02-04T18:05:56.433Z,5.47
2023-02-04T18:08:31.748Z,5.61
2023-02-04T18:10:58.798Z,5.55
2023-02-04T18:13:30.290Z,5.36
2023-02-04T18:15:59.551Z,5.55
2023-02-04T18:18:36.061Z,5.07
2023-02-04T18:21:19.094Z,4.72
2023-02-04T18:23:46.423Z,5.17
2023-02-04T18:26:17.804Z,4.96
2023-02-04T18:28:47.797Z,4.88
2023-02-04T18:31:41.077Z,4.90
2023-02-04T18:34:21.205Z,5.49
2023-02-04T18:36:48.678Z,5.47
2023-02-04T18:39:20.896Z,5.29
2023-02-04T18:41:49.638Z,5.47
2023-02-04T18:44:31.608Z,5.54
2023-02-04T18:46:58.868Z,5.39
2023-02-04T18:49:32.684Z,6.05
2023-02-04T18:52:06.571Z,5.36
2023-02-04T18:54:38.736Z,5.19
2023-02-04T18:57:17.604Z,5.50
2023-02-04T18:59:44.438Z,5.34
2023-02-04T19:02:37.006Z,5.61
2023-02-04T19:05:27.923Z,5.87
2023-02-04T19:08:06.863Z,6.06
2023-02-04T19:10:37.424Z,6.10
2023-02-04T19:13:40.725Z,5.92
2023-02-04T19:16:17.103Z,5.86
2023-02-04T19:18:44.538Z,5.73
2023-02-04T19:21:22.189Z,5.82
2023-02-04T19:23:50.850Z,5.86
2023-02-04T19:26:40.508Z,6.00
2023-02-04T19:29:22.397Z,5.83
2023-02-04T19:31:52.282Z,5.50
2023-02-04T19:34:27.565Z,4.84
2023-02-04T19:36:55.541Z,4.59
2023-02-04T19:39:40.255Z,4.93
2023-02-04T19:42:25.707Z,5.58
2023-02-04T19:44:52.934Z,5.25
2023-02-04T19:47:56.599Z,5.00
2023-02-04T19:50:29.935Z,4.73
2023-02-04T19:53:01.292Z,4.64
2023-02-04T19:55:43.423Z,5.05
2023-02-04T19:58:17.321Z,5.29
2023-02-04T20:00:57.071Z,4.85
2023-02-04T20:03:39.253Z,5.46
2023-02-04T20:06:43.934Z,4.43
2023-02-04T20:09:25.167Z,4.88
2023-02-04T20:11:57.045Z,4.66
2023-02-04T20:14:53.149Z,5.02
2023-02-04T20:17:26.542Z,4.79
2023-02-04T20:19:53.444Z,4.74
2023-02-04T20:22:21.007Z,4.47
2023-02-04T20:24:50.650Z,4.77
2023-02-04T20:27:28.165Z,4.44
2023-02-04T20:30:08.630Z,3.96
2023-02-04T20:32:45.330Z,4.32
2023-02-04T20:35:12.692Z,4.47
2023-02-04T20:37:43.801Z,4.56
2023-02-04T20:40:22.619Z,5.09
2023-02-04T20:42:54.792Z,4.48
2023-02-04T20:45:28.960Z,4.18
2023-02-04T20:48:13.273Z,4.63
2023-02-04T20:50:52.154Z,3.79
2023-02-04T20:53:37.207Z,3.13
2023-02-04T20:56:27.118Z,3.39
2023-02-04T20:58:57.691Z,4.32
2023-02-04T21:01:33.839Z,3.71
2023-02-04T21:04:25.889Z,3.73
2023-02-04T21:06:55.755Z,3.94
2023-02-04T21:09:26.316Z,3.81
2023-02-04T21:11:54.911Z,3.69
2023-02-04T21:14:22.884Z,3.40
2023-02-04T21:16:50.864Z,3.77
2023-02-04T21:19:17.636Z,3.82
2023-02-04T21:21:44.513Z,3.79
2023-02-04T21:24:11.336Z,2.99
2023-02-04T21:26:38.284Z,3.00
2023-02-04T21:29:05.370Z,2.94
2023-02-04T21:31:33.224Z,2.64
2023-02-04T21:34:00.094Z,2.96
2023-02-04T21:36:30.129Z,3.29
2023-02-04T21:38:57.025Z,3.13
2023-02-04T21:41:24.268Z,2.80
2023-02-04T21:43:51.411Z,2.87
2023-02-04T21:46:19.158Z,3.41
2023-02-04T21:48:46.299Z,3.24
2023-02-04T21:51:14.753Z,3.12
2023-02-04T21:53:42.340Z,3.18
2023-02-04T21:56:09.469Z,3.41
2023-02-04T21:58:36.833Z,3.17
2023-02-04T22:01:03.743Z,3.25
2023-02-04T22:03:30.551Z,2.80
2023-02-04T22:05:57.430Z,2.72
2023-02-04T22:08:24.398Z,2.83
2023-02-04T22:10:51.177Z,2.88
2023-02-04T22:13:17.929Z,3.14
2023-02-04T22:15:44.834Z,3.57
2023-02-04T22:18:12.131Z,2.59
2023-02-04T22:20:39.585Z,2.91
2023-02-04T22:23:06.627Z,2.91
2023-02-04T22:25:33.807Z,3.19
2023-02-04T22:28:00.654Z,2.98
2023-02-04T22:30:28.645Z,3.02
2023-02-04T22:32:56.601Z,2.57
2023-02-04T22:35:23.427Z,2.61
2023-02-04T22:37:50.154Z,2.25
2023-02-04T22:40:17.238Z,2.21
2023-02-04T22:42:43.884Z,2.32
2023-02-04T22:45:10.895Z,2.52
2023-02-04T22:47:37.816Z,2.61
2023-02-04T22:50:05.394Z,2.75
2023-02-04T22:52:32.249Z,2.53
2023-02-04T22:54:58.968Z,2.53
2023-02-04T22:57:25.818Z,2.35
2023-02-04T22:59:52.501Z,2.47
2023-02-04T23:02:19.282Z,2.54
2023-02-04T23:04:46.338Z,2.57
2023-02-04T23:07:13.756Z,2.64
2023-02-04T23:09:40.534Z,2.63
2023-02-04T23:12:13.213Z,2.57
2023-02-04T23:14:45.802Z,2.56
2023-02-04T23:17:13.554Z,2.32
2023-02-04T23:19:40.566Z,2.36
2023-02-04T23:22:09.146Z,2.14
2023-02-04T23:24:36.435Z,2.12
2023-02-04T23:27:04.536Z,2.79
2023-02-04T23:29:32.842Z,2.49
2023-02-04T23:31:59.617Z,1.90
2023-02-04T23:34:26.314Z,1.80
2023-02-04T23:36:53.221Z,1.82
2023-02-04T23:39:20.768Z,2.08
2023-02-04T23:41:51.084Z,2.33
2023-02-04T23:44:18.221Z,2.08
2023-02-04T23:46:45.213Z,2.17
2023-02-04T23:49:12.326Z,2.43
2023-02-04T23:51:39.681Z,2.00
2023-02-04T23:54:07.237Z,2.25
2023-02-04T23:56:34.447Z,2.29
2023-02-04T23:59:01.463Z,1.06
